Fort Smith Airport

CYSM | YSM

Fort Smith , Northwest Territories , Canada

Wednesday, December 11th, 2019 | 09:06

Weather

CYSM 111500Z 00000KT 15SM IC SKC M39/M43 A3036 RMK SLP323

Charts

No Charts Available

Gates

No Gates Available

Runways

2 Available

Events

No events for this airport


New event